Seaside Park, New Jersey
Current Conditions -  °F | °C
As of 5:55 AM on Sunday 23 Nov 2014 (Local Time) from KMJX Reporting Station
Overcast Overcast  
Wind Chill: 36°   Ceiling: 12000
Heat Index: 39°   Visibility: 10mi
Dew Point: 25°   Wind: 5mph
Humidity: 56%   Direction: 230°SW
Pressure: 30.23"   Gusts: NA
Location:  39.93°N, 74.07°W
Report Text: KMJX 231055Z AUTO 23004KT 10SM OVC120 04/M04 A3023 RMK AO1
Loading
Personal Weather Stations






























Interactive Weather Map New forecast layout! Learn more

10-Day Weather Forecast

Advertisements
Track Severe Weather on mobile